Yale, Iowa
Current Conditions -  °F | °C
As of 2:55 AM on Friday 31 Oct 2014 (Local Time) from KPRO Reporting Station
Broken Clouds Broken Clouds  
Wind Chill: 25°   Ceiling: 3500
Heat Index: 35°   Visibility: 10mi
Dew Point: 24°   Wind: 16mph
Humidity: 64%   Direction: 350°N
Pressure: 30.39"   Gusts: 25mph
Location:  41.78°N, 94.36°W
Report Text: KPRO 310755Z AUTO 35014G22KT 10SM BKN035 02/M05 A3039 RMK AO2 T00151047
Loading
Personal Weather Stations






























Interactive Weather Map
Tropical Storm Tracking
New forecast layout! Learn more

10-Day Weather Forecast

Advertisements
Track Severe Weather on mobile